createdAt,value
2018-04-14T00:00:06.647Z,8.93
2018-04-14T00:02:34.173Z,8.23
2018-04-14T00:05:01.778Z,6.47
2018-04-14T00:07:29.307Z,9.03
2018-04-14T00:09:56.824Z,7.20
2018-04-14T00:12:24.448Z,7.27
2018-04-14T00:14:52.007Z,7.40
2018-04-14T00:17:19.584Z,8.77
2018-04-14T00:19:47.142Z,9.73
2018-04-14T00:22:14.668Z,10.10
2018-04-14T00:24:42.262Z,10.13
2018-04-14T00:27:09.779Z,9.70
2018-04-14T00:29:37.299Z,8.93
2018-04-14T00:32:04.945Z,7.97
2018-04-14T00:34:32.459Z,9.67
2018-04-14T00:37:00.062Z,11.27
2018-04-14T00:39:27.623Z,9.03
2018-04-14T00:41:55.177Z,8.57
2018-04-14T00:44:22.701Z,8.77
2018-04-14T00:46:50.228Z,11.00
2018-04-14T00:49:17.759Z,12.37
2018-04-14T00:51:45.307Z,11.60
2018-04-14T00:54:12.837Z,10.20
2018-04-14T00:56:40.404Z,11.37
2018-04-14T00:59:07.956Z,12.60
2018-04-14T01:01:35.515Z,14.30
2018-04-14T01:04:03.121Z,14.97
2018-04-14T01:06:30.677Z,14.63
2018-04-14T01:08:58.237Z,14.60
2018-04-14T01:11:25.768Z,16.50
2018-04-14T01:13:54.147Z,17.07
2018-04-14T01:16:21.676Z,17.50
2018-04-14T01:18:49.232Z,17.53
2018-04-14T01:21:16.755Z,16.17
2018-04-14T01:23:44.284Z,18.60
2018-04-14T01:26:11.804Z,18.30
2018-04-14T01:28:39.849Z,16.70
2018-04-14T01:31:07.396Z,15.80
2018-04-14T01:33:34.922Z,15.90
2018-04-14T01:36:02.465Z,14.93
2018-04-14T01:38:30.086Z,16.37
2018-04-14T01:40:57.603Z,16.60
2018-04-14T01:43:25.206Z,16.73
2018-04-14T01:45:52.770Z,17.37
2018-04-14T01:48:20.298Z,19.07
2018-04-14T01:50:47.843Z,20.10
2018-04-14T01:53:15.435Z,19.40
2018-04-14T01:55:42.964Z,18.00
2018-04-14T01:58:10.570Z,21.93
2018-04-14T02:00:38.095Z,20.53
2018-04-14T02:03:05.696Z,21.70
2018-04-14T02:05:33.215Z,20.50
2018-04-14T02:08:00.900Z,23.03
2018-04-14T02:10:28.473Z,18.30
2018-04-14T02:12:56.001Z,21.47
2018-04-14T02:15:23.532Z,22.60
2018-04-14T02:17:51.127Z,22.17
2018-04-14T02:20:18.714Z,20.73
2018-04-14T02:22:46.260Z,22.27
2018-04-14T02:25:13.819Z,21.87
2018-04-14T02:27:41.351Z,22.07
2018-04-14T02:30:08.956Z,21.00
2018-04-14T02:32:36.507Z,23.93
2018-04-14T02:35:04.041Z,23.93
2018-04-14T02:37:31.568Z,21.23
2018-04-14T02:39:59.093Z,22.10
2018-04-14T02:42:26.653Z,21.70
2018-04-14T02:44:54.200Z,22.47
2018-04-14T02:47:21.739Z,23.03
2018-04-14T02:49:49.299Z,21.33
2018-04-14T02:52:16.832Z,23.83
2018-04-14T02:54:44.371Z,22.40
2018-04-14T02:57:11.895Z,23.37
2018-04-14T02:59:39.423Z,25.93
2018-04-14T03:02:07.036Z,23.43
2018-04-14T03:04:34.555Z,23.43
2018-04-14T03:07:02.091Z,22.73
2018-04-14T03:09:29.716Z,23.77
2018-04-14T03:11:57.235Z,27.17
2018-04-14T03:14:24.755Z,26.73
2018-04-14T03:16:52.395Z,24.53
2018-04-14T03:19:19.915Z,25.10
2018-04-14T03:21:47.515Z,25.60
2018-04-14T03:24:15.036Z,26.53
2018-04-14T03:26:42.619Z,28.80
2018-04-14T03:29:10.147Z,24.97
2018-04-14T03:31:37.711Z,28.87
2018-04-14T03:34:05.240Z,24.37
2018-04-14T03:36:32.770Z,25.93
2018-04-14T03:39:00.295Z,25.73
2018-04-14T03:41:27.899Z,25.20
2018-04-14T03:43:55.419Z,26.47
2018-04-14T03:46:23.039Z,26.63
2018-04-14T03:48:50.585Z,26.33
2018-04-14T03:51:18.115Z,28.27
2018-04-14T03:53:45.631Z,30.73
2018-04-14T03:56:13.182Z,32.70
2018-04-14T03:58:40.696Z,31.70
2018-04-14T04:01:08.225Z,33.90
2018-04-14T04:03:35.763Z,36.47
2018-04-14T04:06:03.386Z,39.37
2018-04-14T04:08:30.917Z,39.93
2018-04-14T04:10:58.444Z,36.03
2018-04-14T04:13:26.064Z,34.60
2018-04-14T04:15:53.583Z,34.90
2018-04-14T04:18:32.964Z,36.23
2018-04-14T04:21:12.507Z,34.33
2018-04-14T04:23:52.059Z,33.60
2018-04-14T04:26:19.579Z,29.30
2018-04-14T04:28:47.094Z,30.73
2018-04-14T04:31:14.727Z,28.40
2018-04-14T04:33:42.252Z,28.67
2018-04-14T04:36:09.775Z,26.80
2018-04-14T04:38:37.307Z,26.10
2018-04-14T04:41:04.862Z,30.83
2018-04-14T04:43:32.422Z,32.77
2018-04-14T04:45:59.940Z,35.77
2018-04-14T04:48:27.505Z,35.57
2018-04-14T04:50:55.064Z,35.40
2018-04-14T04:53:22.632Z,43.37
2018-04-14T04:55:50.152Z,44.07
2018-04-14T04:58:17.680Z,44.67
2018-04-14T05:00:45.211Z,48.67
2018-04-14T05:03:12.727Z,52.90
2018-04-14T05:05:40.353Z,49.43
2018-04-14T05:08:07.924Z,51.93
2018-04-14T05:10:35.444Z,55.40
2018-04-14T05:13:03.041Z,52.70
2018-04-14T05:15:30.604Z,57.47
2018-04-14T05:17:58.165Z,59.47
2018-04-14T05:20:25.691Z,56.77
2018-04-14T05:22:53.213Z,56.87
2018-04-14T05:25:20.831Z,61.43
2018-04-14T05:27:48.347Z,60.43
2018-04-14T05:30:15.895Z,62.90
2018-04-14T05:32:43.514Z,60.13
2018-04-14T05:35:11.077Z,60.97
2018-04-14T05:37:38.599Z,59.33
2018-04-14T05:40:06.190Z,63.63
2018-04-14T05:42:33.734Z,60.07
2018-04-14T05:45:01.321Z,55.87
2018-04-14T05:47:28.881Z,57.10
2018-04-14T05:49:56.402Z,56.63
2018-04-14T05:52:23.973Z,54.13
2018-04-14T05:54:51.551Z,52.73
2018-04-14T05:57:19.128Z,53.83
2018-04-14T05:59:46.790Z,51.47
2018-04-14T06:02:14.334Z,50.23
2018-04-14T06:04:41.896Z,51.77
2018-04-14T06:07:09.471Z,50.00
2018-04-14T06:09:37.000Z,53.53
2018-04-14T06:12:04.529Z,48.60
2018-04-14T06:14:32.144Z,51.17
2018-04-14T06:16:59.711Z,52.40
2018-04-14T06:19:27.265Z,46.90
2018-04-14T06:21:54.799Z,48.80
2018-04-14T06:24:22.357Z,50.67
2018-04-14T06:26:49.946Z,47.97
2018-04-14T06:29:17.467Z,47.50
2018-04-14T06:31:45.022Z,52.23
2018-04-14T06:34:12.553Z,54.93
2018-04-14T06:36:40.124Z,53.33
2018-04-14T06:39:07.750Z,55.33
2018-04-14T06:41:35.275Z,57.00
2018-04-14T06:44:02.871Z,58.60
2018-04-14T06:46:30.431Z,60.47
2018-04-14T06:48:57.990Z,63.20
2018-04-14T06:51:25.553Z,64.70
2018-04-14T06:53:53.079Z,66.00
2018-04-14T06:56:20.656Z,65.77
2018-04-14T06:58:48.334Z,69.47
2018-04-14T07:01:15.991Z,67.53
2018-04-14T07:03:43.552Z,70.67
2018-04-14T07:06:11.072Z,68.23
2018-04-14T07:08:38.675Z,75.03
2018-04-14T07:11:06.232Z,71.23
2018-04-14T07:13:33.762Z,76.43
2018-04-14T07:16:01.343Z,73.23
2018-04-14T07:18:28.872Z,74.23
2018-04-14T07:20:56.428Z,72.63
2018-04-14T07:23:23.988Z,68.00
2018-04-14T07:25:51.564Z,69.60
2018-04-14T07:28:19.124Z,68.13
2018-04-14T07:30:46.670Z,65.80
2018-04-14T07:33:14.278Z,69.20
2018-04-14T07:35:41.792Z,64.77
2018-04-14T07:38:09.351Z,66.40
2018-04-14T07:40:36.884Z,63.07
2018-04-14T07:43:04.403Z,68.10
2018-04-14T07:45:31.975Z,68.57
2018-04-14T07:47:59.535Z,69.60
2018-04-14T07:50:27.061Z,67.57
2018-04-14T07:52:54.612Z,76.17
2018-04-14T07:55:22.203Z,70.30
2018-04-14T07:57:49.731Z,77.10
2018-04-14T08:00:17.303Z,71.33
2018-04-14T08:02:44.821Z,69.13
2018-04-14T08:05:12.354Z,80.23
2018-04-14T08:07:39.881Z,82.90
2018-04-14T08:10:07.449Z,78.83
2018-04-14T08:12:34.962Z,81.13
2018-04-14T08:15:02.492Z,84.13
2018-04-14T08:17:30.039Z,85.30
2018-04-14T08:19:57.567Z,84.33
2018-04-14T08:22:25.107Z,83.53
2018-04-14T08:24:52.728Z,88.93
2018-04-14T08:27:20.247Z,85.90
2018-04-14T08:29:47.784Z,84.53
2018-04-14T08:32:15.448Z,84.70
2018-04-14T08:34:43.093Z,87.20
2018-04-14T08:37:10.707Z,84.57
2018-04-14T08:39:38.232Z,85.07
2018-04-14T08:42:05.756Z,80.27
2018-04-14T08:44:33.751Z,80.00
2018-04-14T08:47:01.387Z,83.53
2018-04-14T08:49:28.913Z,84.00
2018-04-14T08:51:56.460Z,81.70
2018-04-14T08:54:24.008Z,82.90
2018-04-14T08:56:51.544Z,76.10
2018-04-14T08:59:19.170Z,74.00
2018-04-14T09:01:46.746Z,85.37
2018-04-14T09:04:14.268Z,77.57
2018-04-14T09:06:41.823Z,69.73
2018-04-14T09:09:09.472Z,76.93
2018-04-14T09:11:36.986Z,76.60
2018-04-14T09:14:04.549Z,71.80
2018-04-14T09:16:32.102Z,68.40
2018-04-14T09:18:59.631Z,71.87
2018-04-14T09:21:27.189Z,69.57
2018-04-14T09:23:54.716Z,63.17
2018-04-14T09:26:22.264Z,62.60
2018-04-14T09:28:49.792Z,60.83
2018-04-14T09:31:17.322Z,59.20
2018-04-14T09:33:44.892Z,54.07
2018-04-14T09:36:12.486Z,56.43
2018-04-14T09:38:40.047Z,52.60
2018-04-14T09:41:07.577Z,45.47
2018-04-14T09:43:35.133Z,45.53
2018-04-14T09:46:02.659Z,46.17
2018-04-14T09:48:30.276Z,44.80
2018-04-14T09:50:57.802Z,43.57
2018-04-14T09:53:25.334Z,44.77
2018-04-14T09:55:52.964Z,43.50
2018-04-14T09:58:20.486Z,38.43
2018-04-14T10:00:53.643Z,37.03
2018-04-14T10:03:23.913Z,40.10
2018-04-14T10:05:51.440Z,39.23
2018-04-14T10:08:19.064Z,37.67
2018-04-14T10:10:46.621Z,40.03
2018-04-14T10:13:14.171Z,37.07
2018-04-14T10:15:41.731Z,39.53
2018-04-14T10:18:09.295Z,38.57
2018-04-14T10:20:36.860Z,39.60
2018-04-14T10:23:04.720Z,38.17
2018-04-14T10:25:32.260Z,36.30
2018-04-14T10:27:59.775Z,38.37
2018-04-14T10:30:27.399Z,34.90
2018-04-14T10:32:54.959Z,34.63
2018-04-14T10:35:22.514Z,34.20
2018-04-14T10:37:50.174Z,33.77
2018-04-14T10:40:17.760Z,36.00
2018-04-14T10:42:45.392Z,30.73
2018-04-14T10:45:12.923Z,32.77
2018-04-14T10:47:40.525Z,32.37
2018-04-14T10:50:08.109Z,32.27
2018-04-14T10:52:35.828Z,35.27
2018-04-14T10:55:03.368Z,36.30
2018-04-14T10:57:30.897Z,34.97
2018-04-14T10:59:58.545Z,35.07
2018-04-14T11:02:26.105Z,35.00
2018-04-14T11:04:53.631Z,34.27
2018-04-14T11:07:21.878Z,32.97
2018-04-14T11:09:49.418Z,33.07
2018-04-14T11:12:17.371Z,32.37
2018-04-14T11:14:47.739Z,31.93
2018-04-14T11:20:03.092Z,29.67
2018-04-14T11:22:30.617Z,32.60
2018-04-14T11:24:58.153Z,31.13
2018-04-14T11:27:25.684Z,27.97
2018-04-14T11:29:53.215Z,28.47
2018-04-14T11:32:20.748Z,29.50
2018-04-14T11:34:48.296Z,29.83
2018-04-14T11:37:15.834Z,30.50
2018-04-14T11:39:43.373Z,28.63
2018-04-14T11:42:10.897Z,32.23
2018-04-14T11:44:38.429Z,29.80
2018-04-14T11:47:05.963Z,29.50
2018-04-14T11:49:33.489Z,31.20
2018-04-14T11:52:01.033Z,32.27
2018-04-14T11:54:28.563Z,27.90
2018-04-14T11:56:56.085Z,30.73
2018-04-14T11:59:23.609Z,32.23
2018-04-14T12:01:51.138Z,29.33
2018-04-14T12:04:18.660Z,35.30
2018-04-14T12:06:46.191Z,31.50
2018-04-14T12:09:13.715Z,35.13
2018-04-14T12:11:41.251Z,34.73
2018-04-14T12:14:08.765Z,34.67
2018-04-14T12:16:36.293Z,35.40
2018-04-14T12:19:03.836Z,42.67
2018-04-14T12:21:31.370Z,39.53
2018-04-14T12:23:58.900Z,38.90
2018-04-14T12:26:26.424Z,37.17
2018-04-14T12:28:53.953Z,39.63
2018-04-14T12:31:21.480Z,40.73
2018-04-14T12:33:49.043Z,44.13
2018-04-14T12:36:16.637Z,40.03
2018-04-14T12:38:44.165Z,42.93
2018-04-14T12:41:11.691Z,43.07
2018-04-14T12:43:39.245Z,45.70
2018-04-14T12:46:06.773Z,41.97
2018-04-14T12:48:34.331Z,43.23
2018-04-14T12:51:01.865Z,47.10
2018-04-14T12:53:29.384Z,44.17
2018-04-14T12:55:56.924Z,44.77
2018-04-14T12:58:24.464Z,41.97
2018-04-14T13:00:52.023Z,40.33
2018-04-14T13:03:19.584Z,40.53
2018-04-14T13:05:47.134Z,36.70
2018-04-14T13:08:14.675Z,36.43
2018-04-14T13:10:42.269Z,38.03
2018-04-14T13:13:09.899Z,35.17
2018-04-14T13:15:37.436Z,36.67
2018-04-14T13:18:04.980Z,37.47
2018-04-14T13:20:32.648Z,40.47
2018-04-14T13:23:00.279Z,37.67
2018-04-14T13:25:27.805Z,41.63
2018-04-14T13:27:55.337Z,40.93
2018-04-14T13:30:22.869Z,40.30
2018-04-14T13:32:50.413Z,41.33
2018-04-14T13:35:17.971Z,43.33
2018-04-14T13:37:45.503Z,41.90
2018-04-14T13:40:13.088Z,43.67
2018-04-14T13:42:40.688Z,42.13
2018-04-14T13:45:09.137Z,45.40
2018-04-14T13:47:36.850Z,45.70
2018-04-14T13:50:04.766Z,46.27
2018-04-14T13:52:32.436Z,39.77
2018-04-14T13:55:00.204Z,43.27
2018-04-14T13:57:28.161Z,42.47
2018-04-14T13:59:55.823Z,43.37
2018-04-14T14:02:23.350Z,43.60
2018-04-14T14:04:50.891Z,43.17
2018-04-14T14:07:18.812Z,41.53
2018-04-14T14:09:48.862Z,40.90
2018-04-14T14:12:16.493Z,43.83
2018-04-14T14:14:44.016Z,42.70
2018-04-14T14:17:11.611Z,44.20
2018-04-14T14:19:39.229Z,41.93
2018-04-14T14:22:07.243Z,42.73
2018-04-14T14:24:34.905Z,47.73
2018-04-14T14:27:02.432Z,46.30
2018-04-14T14:43:32.259Z,36.67
2018-04-14T14:45:59.837Z,34.03
2018-04-14T14:48:28.525Z,35.63
2018-04-14T14:50:56.024Z,37.63
2018-04-14T14:53:23.581Z,42.17
2018-04-14T14:55:51.114Z,38.73
2018-04-14T14:58:18.636Z,38.97
2018-04-14T15:00:46.173Z,40.87
2018-04-14T15:03:13.801Z,38.17
2018-04-14T15:05:41.337Z,40.70
2018-04-14T15:08:08.863Z,38.80
2018-04-14T15:10:36.458Z,35.83
2018-04-14T15:13:03.993Z,37.27
2018-04-14T15:15:31.536Z,38.90
2018-04-14T15:17:59.132Z,41.03
2018-04-14T15:20:26.699Z,38.50
2018-04-14T15:22:54.218Z,37.63
2018-04-14T15:25:21.760Z,38.70
2018-04-14T15:27:49.376Z,36.63
2018-04-14T15:30:16.903Z,33.43
2018-04-14T15:32:44.431Z,37.07
2018-04-14T15:35:11.957Z,34.40
2018-04-14T15:37:39.508Z,36.10
2018-04-14T15:40:07.057Z,32.33
2018-04-14T15:42:34.583Z,36.37
2018-04-14T15:45:02.135Z,32.10
2018-04-14T15:47:29.689Z,33.47
2018-04-14T15:49:57.311Z,32.50
2018-04-14T15:52:24.872Z,33.63
2018-04-14T15:54:52.400Z,35.33
2018-04-14T15:57:19.920Z,33.00
2018-04-14T15:59:47.451Z,37.97
2018-04-14T16:02:14.972Z,40.47
2018-04-14T16:04:42.564Z,42.70
2018-04-14T16:07:10.096Z,41.07
2018-04-14T16:09:37.623Z,42.03
2018-04-14T16:12:05.156Z,40.73
2018-04-14T16:14:32.705Z,40.80
2018-04-14T16:17:00.258Z,41.13
2018-04-14T16:19:27.792Z,36.93
2018-04-14T16:21:55.334Z,40.97
2018-04-14T16:24:22.906Z,41.17
2018-04-14T16:26:50.451Z,38.30
2018-04-14T16:29:17.987Z,37.10
2018-04-14T16:31:45.525Z,35.33
2018-04-14T16:34:13.057Z,37.30
2018-04-14T16:36:40.646Z,36.97
2018-04-14T16:39:08.205Z,35.67
2018-04-14T16:41:35.727Z,43.93
2018-04-14T16:44:03.259Z,38.57
2018-04-14T16:46:30.800Z,40.23
2018-04-14T16:48:58.342Z,37.23
2018-04-14T16:51:25.876Z,41.80
2018-04-14T16:53:53.412Z,33.90
2018-04-14T16:56:20.951Z,37.07
2018-04-14T16:58:48.480Z,41.17
2018-04-14T17:01:16.052Z,36.43
2018-04-14T17:03:43.571Z,36.50
2018-04-14T17:06:11.102Z,33.43
2018-04-14T17:08:38.648Z,36.97
2018-04-14T17:11:06.280Z,40.43
2018-04-14T17:13:33.811Z,37.97
2018-04-14T17:16:01.333Z,33.80
2018-04-14T17:18:28.861Z,36.87
2018-04-14T17:20:56.418Z,38.10
2018-04-14T17:23:23.967Z,37.37
2018-04-14T17:25:51.511Z,38.27
2018-04-14T17:28:19.033Z,38.83
2018-04-14T17:30:46.571Z,37.03
2018-04-14T17:33:14.100Z,37.30
2018-04-14T17:35:41.677Z,39.27
2018-04-14T17:38:09.256Z,39.47
2018-04-14T17:40:36.898Z,37.57
2018-04-14T17:43:04.425Z,42.13
2018-04-14T17:45:32.003Z,54.10
2018-04-14T17:47:59.574Z,54.47
2018-04-14T17:50:27.123Z,50.70
2018-04-14T17:52:54.668Z,40.30
2018-04-14T17:55:22.245Z,39.33
2018-04-14T17:57:49.782Z,40.33
2018-04-14T18:00:17.378Z,46.57
2018-04-14T18:02:45.229Z,50.30
2018-04-14T18:05:12.774Z,47.47
2018-04-14T18:07:40.322Z,49.53
2018-04-14T18:10:08.183Z,49.10
2018-04-14T18:12:35.759Z,52.57
2018-04-14T18:15:03.275Z,52.70
2018-04-14T18:17:30.809Z,47.83
2018-04-14T18:19:58.338Z,49.30
2018-04-14T18:22:25.885Z,52.53
2018-04-14T18:24:53.448Z,50.17
2018-04-14T18:27:21.017Z,50.93
2018-04-14T18:29:48.594Z,54.60
2018-04-14T18:32:16.120Z,56.83
2018-04-14T18:34:43.651Z,55.43
2018-04-14T18:37:11.188Z,56.53
2018-04-14T18:39:38.776Z,60.23
2018-04-14T18:42:06.411Z,62.30
2018-04-14T18:44:33.934Z,63.20
2018-04-14T18:47:01.456Z,59.27
2018-04-14T18:49:29.089Z,64.97
2018-04-14T18:51:56.621Z,67.37
2018-04-14T18:54:24.148Z,60.47
2018-04-14T18:56:51.737Z,56.87
2018-04-14T18:59:19.260Z,63.27
2018-04-14T19:01:46.825Z,63.93
2018-04-14T19:04:14.347Z,60.43
2018-04-14T19:06:41.873Z,63.27
2018-04-14T19:09:09.436Z,65.97
2018-04-14T19:11:36.960Z,70.30
2018-04-14T19:14:04.490Z,67.23
2018-04-14T19:16:32.031Z,67.57
2018-04-14T19:18:59.608Z,66.80
2018-04-14T19:21:27.165Z,64.30
2018-04-14T19:23:54.687Z,76.50
2018-04-14T19:26:22.289Z,69.23
2018-04-14T19:28:49.817Z,67.73
2018-04-14T19:31:17.338Z,75.40
2018-04-14T19:33:44.876Z,72.80
2018-04-14T19:36:12.526Z,70.17
2018-04-14T19:38:40.048Z,69.03
2018-04-14T19:41:08.471Z,76.10
2018-04-14T19:43:36.009Z,81.93
2018-04-14T19:46:03.553Z,85.87
2018-04-14T19:48:31.096Z,92.80
2018-04-14T19:50:58.807Z,98.13
2018-04-14T19:53:26.370Z,101.17
2018-04-14T19:55:53.895Z,111.67
2018-04-14T19:58:21.485Z,103.17
2018-04-14T20:00:50.099Z,104.20
2018-04-14T20:03:18.452Z,110.30
2018-04-14T20:05:46.010Z,106.77
2018-04-14T20:08:13.672Z,105.23
2018-04-14T20:10:41.333Z,108.47
2018-04-14T20:13:08.872Z,105.23
2018-04-14T20:15:36.512Z,108.17
2018-04-14T20:18:04.039Z,101.73
2018-04-14T20:20:31.675Z,104.90
2018-04-14T20:22:59.202Z,107.70
2018-04-14T20:25:26.725Z,105.43
2018-04-14T20:27:54.490Z,100.77
2018-04-14T20:30:22.017Z,103.70
2018-04-14T20:32:49.563Z,103.83
2018-04-14T20:35:17.112Z,113.07
2018-04-14T20:37:44.653Z,105.57
2018-04-14T20:40:12.209Z,101.07
2018-04-14T20:42:39.747Z,105.47
2018-04-14T20:45:07.374Z,102.53
2018-04-14T20:47:34.909Z,98.80
2018-04-14T20:50:02.433Z,100.93
2018-04-14T20:52:29.984Z,103.93
2018-04-14T20:54:57.682Z,96.93
2018-04-14T20:57:25.253Z,89.90
2018-04-14T20:59:53.169Z,95.07
2018-04-14T21:02:20.751Z,91.90
2018-04-14T21:04:48.291Z,93.20
2018-04-14T21:07:15.822Z,83.50
2018-04-14T21:09:43.387Z,85.70
2018-04-14T21:12:10.947Z,79.90
2018-04-14T21:14:38.476Z,81.40
2018-04-14T21:17:05.999Z,100.80
2018-04-14T21:19:33.522Z,88.30
2018-04-14T21:22:01.233Z,90.73
2018-04-14T21:24:28.805Z,85.50
2018-04-14T21:26:56.391Z,84.30
2018-04-14T21:29:23.923Z,82.07
2018-04-14T21:31:51.523Z,83.40
2018-04-14T21:34:19.056Z,82.03
2018-04-14T21:36:46.647Z,78.50
2018-04-14T21:39:14.172Z,82.20
2018-04-14T21:41:41.767Z,79.07
2018-04-14T21:44:09.294Z,80.77
2018-04-14T21:46:36.818Z,84.03
2018-04-14T21:49:04.441Z,83.03
2018-04-14T21:51:31.978Z,85.47
2018-04-14T21:53:59.501Z,87.78
2018-04-14T21:56:27.024Z,90.93
2018-04-14T21:58:54.549Z,83.67
2018-04-14T22:01:22.068Z,82.07
2018-04-14T22:03:49.600Z,81.77
2018-04-14T22:06:17.123Z,81.20
2018-04-14T22:08:44.707Z,85.83
2018-04-14T22:11:12.247Z,79.67
2018-04-14T22:13:39.839Z,90.97
2018-04-14T22:16:07.373Z,86.10
2018-04-14T22:18:34.888Z,85.73
2018-04-14T22:21:02.418Z,91.93
2018-04-14T22:23:29.978Z,94.90
2018-04-14T22:25:57.540Z,99.47
2018-04-14T22:28:25.094Z,91.77
2018-04-14T22:30:52.611Z,93.93
2018-04-14T22:33:20.223Z,89.67
2018-04-14T22:35:47.752Z,99.37
2018-04-14T22:38:15.304Z,94.20
2018-04-14T22:40:42.899Z,97.23
2018-04-14T22:43:10.461Z,96.97
2018-04-14T22:45:37.988Z,98.50
2018-04-14T22:48:05.574Z,100.20
2018-04-14T22:50:33.108Z,103.07
2018-04-14T22:53:00.702Z,99.87
2018-04-14T22:55:28.257Z,95.20
2018-04-14T22:57:55.815Z,97.07
2018-04-14T23:00:23.348Z,105.37
2018-04-14T23:02:50.883Z,105.17
2018-04-14T23:05:18.419Z,109.43
2018-04-14T23:07:45.959Z,103.73
2018-04-14T23:10:13.615Z,102.43
2018-04-14T23:12:41.149Z,107.10
2018-04-14T23:15:08.738Z,102.73
2018-04-14T23:17:36.293Z,100.00
2018-04-14T23:20:03.826Z,98.20
2018-04-14T23:22:31.357Z,110.60
2018-04-14T23:24:58.904Z,112.13
2018-04-14T23:27:26.434Z,105.53
2018-04-14T23:29:53.959Z,109.80
2018-04-14T23:32:21.549Z,109.57
2018-04-14T23:34:49.082Z,107.57
2018-04-14T23:37:16.672Z,113.87
2018-04-14T23:39:44.228Z,100.37
2018-04-14T23:42:11.793Z,103.90
2018-04-14T23:44:39.319Z,102.97
2018-04-14T23:47:06.915Z,98.17
2018-04-14T23:49:34.445Z,103.13
2018-04-14T23:52:01.977Z,103.63
2018-04-14T23:54:29.516Z,102.60
2018-04-14T23:56:57.048Z,111.97
2018-04-14T23:59:24.580Z,103.27
